PABV

Details ICAO PABV
Name BIRCHWOOD
Region USA (Alaska)
Timezone America/Anchorage (UTC-9.0)
Plans Departing 4
Arriving 1
Stats Elevation 96 ft / 29 m (AMSL)
Location 61.414798° -149.509082°
Runways 2
Magnetic Variation 16.424° E
Sunrise 2017-12-13 19:09:15 UTC / 2017-12-13 10:09:15 Local
Sunset 2017-12-14 00:38:27 UTC / 2017-12-13 15:38:27 Local
Advertisement - Login to hide

Runways

ID Width Length Bearing (true) Bearing (mag) Surface Threshold Offset Overrun Length
01L 100 ft / 30 m 4,000 ft / 1,219 m 39.34° 22.92° Asphalt 0 ft / 0 m 0 ft / 0 m
01R 50 ft / 15 m 2,195 ft / 669 m 23.97° 7.55° Dirt 0 ft / 0 m 0 ft / 0 m
19L 50 ft / 15 m 2,195 ft / 669 m 203.98° 187.56° Dirt 0 ft / 0 m 0 ft / 0 m
19R 100 ft / 30 m 4,000 ft / 1,219 m 219.35° 202.93° Asphalt 0 ft / 0 m 0 ft / 0 m

Map

Weather


0- 5 10 15 20 25 30 35+ Temperature / ° C

Clouds and Precipitation
Forecast for 2017-12-14 00:00 UTC. Updated an hour ago

Ground ~20,000 ft ~40,000 ft Winds

METAR

PABV 132356Z AUTO VRB05KT 10SM CLR 06/M01 A2957 RMK AO2 SLP021 T00611006 10106 20017 53011 $

TAF

Not found

Frequencies

Recorded 135.55 MHz AWOS 3
Unicom 123.00 MHz CTAF/UNICOM
Warning: Do not use this data for real-world aviation or navigation. No guarantee of current accuracy is given.